DAL5659 KJFK-KCMH
Flight info
| Callsign | DAL5659 |
|---|---|
| Flight time | 1h 21m |
| Altitude | 38000 |
| Route | DEEZZ6 CANDR J60 DANNR RAV J64 MAINE APE |
| Aircraft | A319/M-SDE3FGHIRWY/LB1 |
Departure
| Time | 2026-05-05 00:45 |
|---|---|
| Airport | John F. Kennedy International Airport (KJFK) |
Arrival
| Time | 2026-05-05 02:06 |
|---|---|
| Airport | John Glenn Columbus International Airport (KCMH) |
| Time | Latitude | Longitude | Altitude | Speed | Heading |
|---|---|---|---|---|---|
| 2026-05-05 00:08 | 40.64381 | -73.77935 | 15 ft | 0 kts | 239° |
| 2026-05-05 00:32 | 40.64384 | -73.77930 | 15 ft | 2 kts | 239° |
| 2026-05-05 00:32 | 40.64392 | -73.77913 | 15 ft | 2 kts | 239° |
| 2026-05-05 00:33 | 40.64399 | -73.77895 | 15 ft | 2 kts | 239° |
| 2026-05-05 00:33 | 40.64407 | -73.77879 | 15 ft | 2 kts | 240° |
| 2026-05-05 00:33 | 40.64418 | -73.77866 | 15 ft | 2 kts | 200° |
| 2026-05-05 00:33 | 40.64433 | -73.77863 | 15 ft | 2 kts | 167° |
| 2026-05-05 00:34 | 40.64446 | -73.77872 | 15 ft | 2 kts | 134° |
| 2026-05-05 00:34 | 40.64454 | -73.77889 | 15 ft | 2 kts | 101° |
| 2026-05-05 00:34 | 40.64455 | -73.77908 | 15 ft | 2 kts | 98° |
| 2026-05-05 00:34 | 40.64457 | -73.77922 | 15 ft | 0 kts | 98° |
| 2026-05-05 00:35 | 40.64457 | -73.77924 | 15 ft | 0 kts | 97° |
| 2026-05-05 00:36 | 40.64457 | -73.77920 | 15 ft | 1 kts | 98° |
| 2026-05-05 00:37 | 40.64453 | -73.77898 | 15 ft | 3 kts | 102° |
| 2026-05-05 00:37 | 40.64447 | -73.77859 | 15 ft | 5 kts | 103° |
| 2026-05-05 00:37 | 40.64433 | -73.77802 | 15 ft | 7 kts | 115° |
| 2026-05-05 00:37 | 40.64400 | -73.77734 | 15 ft | 9 kts | 126° |
| 2026-05-05 00:38 | 40.64346 | -73.77673 | 15 ft | 11 kts | 151° |
| 2026-05-05 00:38 | 40.64274 | -73.77621 | 15 ft | 12 kts | 150° |
| 2026-05-05 00:38 | 40.64194 | -73.77563 | 15 ft | 13 kts | 151° |
| 2026-05-05 00:38 | 40.64112 | -73.77493 | 15 ft | 14 kts | 139° |
| 2026-05-05 00:39 | 40.64048 | -73.77391 | 15 ft | 11 kts | 128° |
| 2026-05-05 00:39 | 40.64015 | -73.77330 | 15 ft | 3 kts | 105° |
| 2026-05-05 00:39 | 40.64029 | -73.77299 | 15 ft | 5 kts | 33° |
| 2026-05-05 00:39 | 40.64068 | -73.77268 | 15 ft | 7 kts | 30° |
| 2026-05-05 00:40 | 40.64125 | -73.77224 | 15 ft | 11 kts | 31° |
| 2026-05-05 00:40 | 40.64200 | -73.77165 | 15 ft | 14 kts | 30° |
| 2026-05-05 00:40 | 40.64290 | -73.77095 | 15 ft | 15 kts | 31° |
| 2026-05-05 00:40 | 40.64387 | -73.77020 | 15 ft | 16 kts | 28° |
| 2026-05-05 00:41 | 40.64483 | -73.76987 | 15 ft | 12 kts | 1° |
| 2026-05-05 00:41 | 40.64539 | -73.76964 | 15 ft | 8 kts | 31° |
| 2026-05-05 00:41 | 40.64601 | -73.76915 | 15 ft | 12 kts | 30° |
| 2026-05-05 00:41 | 40.64682 | -73.76852 | 15 ft | 14 kts | 31° |
| 2026-05-05 00:42 | 40.64775 | -73.76779 | 15 ft | 15 kts | 30° |
| 2026-05-05 00:42 | 40.64872 | -73.76703 | 15 ft | 16 kts | 31° |
| 2026-05-05 00:42 | 40.64975 | -73.76622 | 15 ft | 17 kts | 31° |
| 2026-05-05 00:42 | 40.65077 | -73.76541 | 15 ft | 10 kts | 32° |
| 2026-05-05 00:43 | 40.65104 | -73.76492 | 15 ft | 6 kts | 92° |
| 2026-05-05 00:43 | 40.65083 | -73.76436 | 15 ft | 7 kts | 120° |
| 2026-05-05 00:43 | 40.65054 | -73.76373 | 15 ft | 8 kts | 120° |
| 2026-05-05 00:43 | 40.65027 | -73.76351 | 15 ft | 4 kts | 183° |
| 2026-05-05 00:44 | 40.64996 | -73.76374 | 15 ft | 6 kts | 214° |
| 2026-05-05 00:44 | 40.64895 | -73.76455 | 15 ft | 46 kts | 210° |
| 2026-05-05 00:44 | 40.64394 | -73.76846 | 16 ft | 117 kts | 210° |
| 2026-05-05 00:44 | 40.63537 | -73.77530 | 181 ft | 159 kts | 211° |
| 2026-05-05 00:45 | 40.62647 | -73.78368 | 904 ft | 160 kts | 219° |
| 2026-05-05 00:45 | 40.61847 | -73.79314 | 1796 ft | 156 kts | 224° |
| 2026-05-05 00:45 | 40.61021 | -73.80315 | 2394 ft | 171 kts | 221° |
| 2026-05-05 00:45 | 40.59952 | -73.81158 | 2933 ft | 193 kts | 197° |
| 2026-05-05 00:46 | 40.58542 | -73.81153 | 3564 ft | 217 kts | 172° |
| 2026-05-05 00:46 | 40.57135 | -73.80220 | 4194 ft | 245 kts | 141° |
| 2026-05-05 00:46 | 40.56161 | -73.78271 | 4832 ft | 269 kts | 110° |
| 2026-05-05 00:46 | 40.55969 | -73.75762 | 5499 ft | 287 kts | 81° |
| 2026-05-05 00:47 | 40.56758 | -73.73389 | 6359 ft | 289 kts | 46° |
| 2026-05-05 00:47 | 40.58315 | -73.71834 | 7329 ft | 281 kts | 17° |
| 2026-05-05 00:47 | 40.60183 | -73.71480 | 8255 ft | 273 kts | 351° |
| 2026-05-05 00:47 | 40.62064 | -73.71742 | 9123 ft | 277 kts | 349° |
| 2026-05-05 00:48 | 40.63990 | -73.71995 | 10005 ft | 281 kts | 349° |
| 2026-05-05 00:48 | 40.65939 | -73.72239 | 10773 ft | 288 kts | 349° |
| 2026-05-05 00:48 | 40.68005 | -73.72501 | 11231 ft | 306 kts | 350° |
| 2026-05-05 00:48 | 40.70185 | -73.72772 | 11643 ft | 324 kts | 350° |
| 2026-05-05 00:49 | 40.72455 | -73.73052 | 12187 ft | 336 kts | 350° |
| 2026-05-05 00:49 | 40.74800 | -73.73334 | 12951 ft | 341 kts | 350° |
| 2026-05-05 00:49 | 40.77177 | -73.73617 | 13727 ft | 344 kts | 349° |
| 2026-05-05 00:49 | 40.79581 | -73.73908 | 14482 ft | 348 kts | 349° |
| 2026-05-05 00:50 | 40.81978 | -73.74203 | 15199 ft | 351 kts | 349° |
| 2026-05-05 00:50 | 40.84441 | -73.74506 | 15915 ft | 355 kts | 349° |
| 2026-05-05 00:50 | 40.86896 | -73.74806 | 16592 ft | 358 kts | 350° |
| 2026-05-05 00:50 | 40.89382 | -73.75110 | 17273 ft | 362 kts | 350° |
| 2026-05-05 00:51 | 40.91885 | -73.75417 | 17939 ft | 365 kts | 350° |
| 2026-05-05 00:51 | 40.94417 | -73.75724 | 18574 ft | 368 kts | 350° |
| 2026-05-05 00:51 | 40.97004 | -73.76042 | 19228 ft | 371 kts | 350° |
| 2026-05-05 00:51 | 40.99571 | -73.76355 | 19843 ft | 374 kts | 350° |
| 2026-05-05 00:52 | 41.02168 | -73.76675 | 20453 ft | 377 kts | 350° |
| 2026-05-05 00:52 | 41.04805 | -73.77000 | 21058 ft | 379 kts | 350° |
| 2026-05-05 00:52 | 41.07383 | -73.77610 | 21628 ft | 376 kts | 336° |
| 2026-05-05 00:52 | 41.09638 | -73.79217 | 22217 ft | 371 kts | 319° |
| 2026-05-05 00:53 | 41.11407 | -73.81677 | 22793 ft | 369 kts | 303° |
| 2026-05-05 00:53 | 41.12531 | -73.84764 | 23338 ft | 371 kts | 287° |
| 2026-05-05 00:53 | 41.13107 | -73.88056 | 23881 ft | 373 kts | 283° |
| 2026-05-05 00:53 | 41.13649 | -73.91435 | 24379 ft | 377 kts | 283° |
| 2026-05-05 00:54 | 41.14197 | -73.94849 | 24870 ft | 380 kts | 283° |
| 2026-05-05 00:54 | 41.14741 | -73.98247 | 25315 ft | 384 kts | 283° |
| 2026-05-05 00:54 | 41.15301 | -74.01737 | 25775 ft | 387 kts | 283° |
| 2026-05-05 00:54 | 41.15859 | -74.05229 | 26240 ft | 389 kts | 283° |
| 2026-05-05 00:55 | 41.16423 | -74.08749 | 26696 ft | 392 kts | 283° |
| 2026-05-05 00:55 | 41.16917 | -74.12312 | 27091 ft | 396 kts | 280° |
| 2026-05-05 00:55 | 41.17291 | -74.15923 | 27487 ft | 399 kts | 279° |
| 2026-05-05 00:55 | 41.17639 | -74.19540 | 27914 ft | 401 kts | 279° |
| 2026-05-05 00:56 | 41.17991 | -74.23246 | 28285 ft | 404 kts | 279° |
| 2026-05-05 00:56 | 41.18339 | -74.26916 | 28646 ft | 407 kts | 279° |
| 2026-05-05 00:56 | 41.18691 | -74.30652 | 29027 ft | 410 kts | 279° |
| 2026-05-05 00:56 | 41.19044 | -74.34401 | 29405 ft | 412 kts | 279° |
| 2026-05-05 00:57 | 41.19330 | -74.38185 | 29763 ft | 415 kts | 275° |
| 2026-05-05 00:57 | 41.19252 | -74.42045 | 30117 ft | 420 kts | 267° |
| 2026-05-05 00:57 | 41.18793 | -74.45834 | 30488 ft | 423 kts | 260° |
| 2026-05-05 00:57 | 41.17944 | -74.49580 | 30946 ft | 425 kts | 253° |
| 2026-05-05 00:58 | 41.16721 | -74.53160 | 31385 ft | 428 kts | 246° |
| 2026-05-05 00:58 | 41.15229 | -74.56571 | 31782 ft | 429 kts | 244° |
| 2026-05-05 00:58 | 41.13686 | -74.59948 | 32168 ft | 429 kts | 243° |
| 2026-05-05 00:58 | 41.12137 | -74.63310 | 32525 ft | 430 kts | 244° |
| 2026-05-05 00:59 | 41.10584 | -74.66681 | 32880 ft | 430 kts | 243° |
| 2026-05-05 00:59 | 41.09033 | -74.70052 | 33229 ft | 430 kts | 243° |
| 2026-05-05 00:59 | 41.07471 | -74.73452 | 33575 ft | 431 kts | 243° |
| 2026-05-05 00:59 | 41.05922 | -74.76822 | 33913 ft | 431 kts | 243° |
| 2026-05-05 01:00 | 41.04375 | -74.80189 | 34250 ft | 431 kts | 243° |
| 2026-05-05 01:00 | 41.02802 | -74.83605 | 34579 ft | 431 kts | 243° |
| 2026-05-05 01:00 | 41.01257 | -74.86956 | 34880 ft | 431 kts | 244° |
| 2026-05-05 01:00 | 40.99712 | -74.90376 | 35157 ft | 430 kts | 245° |
| 2026-05-05 01:01 | 40.98313 | -74.93842 | 35458 ft | 426 kts | 248° |
| 2026-05-05 01:01 | 40.97091 | -74.97322 | 35761 ft | 422 kts | 251° |
| 2026-05-05 01:01 | 40.96006 | -75.00909 | 36049 ft | 419 kts | 254° |
| 2026-05-05 01:01 | 40.95076 | -75.04555 | 36308 ft | 416 kts | 257° |
| 2026-05-05 01:02 | 40.94232 | -75.08199 | 36508 ft | 416 kts | 257° |
| 2026-05-05 01:02 | 40.93397 | -75.11829 | 36727 ft | 416 kts | 257° |
| 2026-05-05 01:02 | 40.92551 | -75.15483 | 36936 ft | 417 kts | 257° |
| 2026-05-05 01:02 | 40.91702 | -75.19142 | 37180 ft | 417 kts | 256° |
| 2026-05-05 01:03 | 40.90844 | -75.22817 | 37398 ft | 417 kts | 256° |
| 2026-05-05 01:03 | 40.89991 | -75.26460 | 37586 ft | 418 kts | 256° |
| 2026-05-05 01:03 | 40.89131 | -75.30125 | 37748 ft | 418 kts | 256° |
| 2026-05-05 01:03 | 40.88270 | -75.33787 | 37870 ft | 418 kts | 256° |
| 2026-05-05 01:04 | 40.87407 | -75.37451 | 37874 ft | 419 kts | 256° |
| 2026-05-05 01:04 | 40.84813 | -75.48426 | 37898 ft | 419 kts | 256° |
| 2026-05-05 01:05 | 40.83084 | -75.55714 | 37889 ft | 419 kts | 256° |
| 2026-05-05 01:05 | 40.81343 | -75.63030 | 37882 ft | 419 kts | 256° |
| 2026-05-05 01:06 | 40.79602 | -75.70329 | 37899 ft | 419 kts | 256° |
| 2026-05-05 01:06 | 40.77856 | -75.77636 | 37896 ft | 419 kts | 255° |
| 2026-05-05 01:07 | 40.76101 | -75.84946 | 37900 ft | 418 kts | 255° |
| 2026-05-05 01:07 | 40.74343 | -75.92239 | 37905 ft | 418 kts | 255° |
| 2026-05-05 01:08 | 40.72591 | -75.99493 | 37881 ft | 418 kts | 255° |
| 2026-05-05 01:08 | 40.70826 | -76.06787 | 37891 ft | 418 kts | 255° |
| 2026-05-05 01:09 | 40.69062 | -76.14046 | 37884 ft | 418 kts | 255° |
| 2026-05-05 01:09 | 40.67286 | -76.21330 | 37900 ft | 419 kts | 255° |
| 2026-05-05 01:10 | 40.65219 | -76.28508 | 37886 ft | 420 kts | 251° |
| 2026-05-05 01:10 | 40.62995 | -76.35606 | 37908 ft | 420 kts | 251° |
| 2026-05-05 01:11 | 40.60773 | -76.42683 | 37891 ft | 420 kts | 251° |
| 2026-05-05 01:11 | 40.58566 | -76.49779 | 37909 ft | 420 kts | 253° |
| 2026-05-05 01:12 | 40.56971 | -76.57085 | 37875 ft | 416 kts | 262° |
| 2026-05-05 01:12 | 40.56255 | -76.64588 | 37877 ft | 414 kts | 270° |
| 2026-05-05 01:13 | 40.56418 | -76.72115 | 37876 ft | 413 kts | 277° |
| 2026-05-05 01:13 | 40.57074 | -76.79600 | 37878 ft | 413 kts | 278° |
| 2026-05-05 01:14 | 40.57745 | -76.87052 | 37866 ft | 413 kts | 278° |
| 2026-05-05 01:14 | 40.58411 | -76.94519 | 37869 ft | 412 kts | 278° |
| 2026-05-05 01:15 | 40.59073 | -77.02023 | 37860 ft | 413 kts | 278° |
| 2026-05-05 01:15 | 40.59726 | -77.09485 | 37871 ft | 413 kts | 278° |
| 2026-05-05 01:16 | 40.60376 | -77.16950 | 37855 ft | 413 kts | 278° |
| 2026-05-05 01:16 | 40.61023 | -77.24471 | 37861 ft | 413 kts | 278° |
| 2026-05-05 01:17 | 40.61661 | -77.31925 | 37853 ft | 413 kts | 278° |
| 2026-05-05 01:17 | 40.62295 | -77.39406 | 37857 ft | 413 kts | 278° |
| 2026-05-05 01:18 | 40.62928 | -77.46934 | 37862 ft | 414 kts | 278° |
| 2026-05-05 01:18 | 40.63552 | -77.54455 | 37861 ft | 414 kts | 278° |
| 2026-05-05 01:19 | 40.64167 | -77.61910 | 37862 ft | 413 kts | 278° |
| 2026-05-05 01:19 | 40.64781 | -77.69407 | 37862 ft | 413 kts | 277° |
| 2026-05-05 01:20 | 40.65391 | -77.76932 | 37859 ft | 414 kts | 277° |
| 2026-05-05 01:20 | 40.65996 | -77.84429 | 37861 ft | 413 kts | 277° |
| 2026-05-05 01:21 | 40.66595 | -77.91949 | 37857 ft | 414 kts | 277° |
| 2026-05-05 01:21 | 40.67194 | -77.99499 | 37852 ft | 414 kts | 277° |
| 2026-05-05 01:22 | 40.67778 | -78.06972 | 37851 ft | 413 kts | 277° |
| 2026-05-05 01:22 | 40.68366 | -78.14525 | 37859 ft | 414 kts | 277° |
| 2026-05-05 01:23 | 40.68943 | -78.22006 | 37853 ft | 412 kts | 277° |
| 2026-05-05 01:23 | 40.69516 | -78.29528 | 37861 ft | 412 kts | 277° |
| 2026-05-05 01:24 | 40.70084 | -78.37019 | 37857 ft | 411 kts | 277° |
| 2026-05-05 01:24 | 40.70647 | -78.44515 | 37852 ft | 411 kts | 277° |
| 2026-05-05 01:25 | 40.71205 | -78.52007 | 37855 ft | 411 kts | 277° |
| 2026-05-05 01:25 | 40.71758 | -78.59503 | 37851 ft | 411 kts | 277° |
| 2026-05-05 01:26 | 40.72302 | -78.66966 | 37839 ft | 411 kts | 276° |
| 2026-05-05 01:26 | 40.72847 | -78.74488 | 37840 ft | 411 kts | 276° |
| 2026-05-05 01:27 | 40.73383 | -78.81936 | 37842 ft | 410 kts | 276° |
| 2026-05-05 01:27 | 40.73914 | -78.89416 | 37839 ft | 410 kts | 276° |
| 2026-05-05 01:28 | 40.74439 | -78.96867 | 37843 ft | 409 kts | 276° |
| 2026-05-05 01:28 | 40.74958 | -79.04311 | 37836 ft | 409 kts | 276° |
| 2026-05-05 01:29 | 40.75477 | -79.11792 | 37837 ft | 409 kts | 276° |
| 2026-05-05 01:29 | 40.75988 | -79.19251 | 37826 ft | 409 kts | 276° |
| 2026-05-05 01:30 | 40.76495 | -79.26723 | 37825 ft | 410 kts | 276° |
| 2026-05-05 01:30 | 40.76993 | -79.34147 | 37826 ft | 410 kts | 276° |
| 2026-05-05 01:31 | 40.77489 | -79.41605 | 37820 ft | 410 kts | 276° |
| 2026-05-05 01:31 | 40.77986 | -79.49141 | 37823 ft | 411 kts | 276° |
| 2026-05-05 01:32 | 40.78474 | -79.56615 | 37821 ft | 410 kts | 276° |
| 2026-05-05 01:32 | 40.78956 | -79.64075 | 37819 ft | 411 kts | 276° |
| 2026-05-05 01:33 | 40.79435 | -79.71600 | 37828 ft | 411 kts | 275° |
| 2026-05-05 01:33 | 40.79908 | -79.79071 | 37815 ft | 411 kts | 275° |
| 2026-05-05 01:34 | 40.80380 | -79.86594 | 37816 ft | 411 kts | 275° |
| 2026-05-05 01:34 | 40.80844 | -79.94102 | 37828 ft | 411 kts | 275° |
| 2026-05-05 01:35 | 40.81304 | -80.01598 | 37812 ft | 410 kts | 275° |
| 2026-05-05 01:35 | 40.81759 | -80.09087 | 37809 ft | 411 kts | 275° |
| 2026-05-05 01:36 | 40.82207 | -80.16586 | 37810 ft | 411 kts | 275° |
| 2026-05-05 01:36 | 40.82642 | -80.24079 | 37809 ft | 411 kts | 274° |
| 2026-05-05 01:37 | 40.83031 | -80.31603 | 37813 ft | 411 kts | 274° |
| 2026-05-05 01:37 | 40.83413 | -80.39098 | 37808 ft | 411 kts | 274° |
| 2026-05-05 01:38 | 40.83793 | -80.46618 | 37812 ft | 411 kts | 274° |
| 2026-05-05 01:38 | 40.84170 | -80.54134 | 37813 ft | 411 kts | 274° |
| 2026-05-05 01:39 | 40.84540 | -80.61630 | 37798 ft | 410 kts | 274° |
| 2026-05-05 01:39 | 40.84904 | -80.69128 | 37784 ft | 411 kts | 273° |
| 2026-05-05 01:40 | 40.85267 | -80.76645 | 37791 ft | 411 kts | 273° |
| 2026-05-05 01:40 | 40.85623 | -80.84152 | 37784 ft | 410 kts | 273° |
| 2026-05-05 01:41 | 40.85974 | -80.91648 | 37417 ft | 404 kts | 274° |
| 2026-05-05 01:41 | 40.86147 | -80.95387 | 36576 ft | 406 kts | 274° |
| 2026-05-05 01:41 | 40.86318 | -80.99108 | 35746 ft | 412 kts | 274° |
| 2026-05-05 01:42 | 40.86490 | -81.02887 | 34911 ft | 416 kts | 274° |
| 2026-05-05 01:42 | 40.86662 | -81.06676 | 34075 ft | 419 kts | 274° |
| 2026-05-05 01:42 | 40.86836 | -81.10535 | 33301 ft | 421 kts | 274° |
| 2026-05-05 01:42 | 40.87009 | -81.14391 | 32877 ft | 425 kts | 274° |
| 2026-05-05 01:43 | 40.87357 | -81.22192 | 32780 ft | 427 kts | 274° |
| 2026-05-05 01:43 | 40.87697 | -81.29981 | 32708 ft | 425 kts | 274° |
| 2026-05-05 01:44 | 40.87865 | -81.33851 | 32062 ft | 426 kts | 274° |
| 2026-05-05 01:44 | 40.88034 | -81.37773 | 30905 ft | 435 kts | 274° |
| 2026-05-05 01:44 | 40.88206 | -81.41763 | 29654 ft | 443 kts | 273° |
| 2026-05-05 01:44 | 40.88380 | -81.45850 | 28623 ft | 443 kts | 273° |
| 2026-05-05 01:45 | 40.88547 | -81.49845 | 27968 ft | 436 kts | 273° |
| 2026-05-05 01:45 | 40.88710 | -81.53799 | 27313 ft | 430 kts | 273° |
| 2026-05-05 01:45 | 40.88871 | -81.57707 | 26597 ft | 425 kts | 273° |
| 2026-05-05 01:45 | 40.89029 | -81.61577 | 25871 ft | 421 kts | 273° |
| 2026-05-05 01:46 | 40.89098 | -81.65364 | 25155 ft | 416 kts | 265° |
| 2026-05-05 01:46 | 40.88336 | -81.69031 | 24415 ft | 413 kts | 245° |
| 2026-05-05 01:46 | 40.86694 | -81.72082 | 23776 ft | 411 kts | 227° |
| 2026-05-05 01:46 | 40.84620 | -81.74624 | 23124 ft | 408 kts | 225° |
| 2026-05-05 01:47 | 40.82542 | -81.77146 | 22429 ft | 404 kts | 225° |
| 2026-05-05 01:47 | 40.80492 | -81.79649 | 21776 ft | 400 kts | 225° |
| 2026-05-05 01:47 | 40.78471 | -81.82119 | 21083 ft | 395 kts | 225° |
| 2026-05-05 01:47 | 40.76459 | -81.84582 | 20309 ft | 390 kts | 225° |
| 2026-05-05 01:48 | 40.74476 | -81.87006 | 19734 ft | 380 kts | 225° |
| 2026-05-05 01:48 | 40.72566 | -81.89343 | 19227 ft | 371 kts | 225° |
| 2026-05-05 01:48 | 40.70698 | -81.91626 | 18748 ft | 362 kts | 226° |
| 2026-05-05 01:48 | 40.68881 | -81.93845 | 18293 ft | 357 kts | 226° |
| 2026-05-05 01:49 | 40.67079 | -81.96046 | 17842 ft | 353 kts | 226° |
| 2026-05-05 01:49 | 40.65271 | -81.98255 | 17394 ft | 350 kts | 226° |
| 2026-05-05 01:49 | 40.63502 | -82.00412 | 16964 ft | 347 kts | 226° |
| 2026-05-05 01:49 | 40.61742 | -82.02557 | 16529 ft | 345 kts | 226° |
| 2026-05-05 01:50 | 40.59985 | -82.04697 | 16098 ft | 342 kts | 226° |
| 2026-05-05 01:50 | 40.58245 | -82.06815 | 15667 ft | 339 kts | 226° |
| 2026-05-05 01:50 | 40.56535 | -82.08891 | 15240 ft | 337 kts | 226° |
| 2026-05-05 01:50 | 40.54804 | -82.10995 | 14802 ft | 335 kts | 226° |
| 2026-05-05 01:51 | 40.53112 | -82.13049 | 14377 ft | 332 kts | 226° |
| 2026-05-05 01:51 | 40.51425 | -82.15095 | 13944 ft | 330 kts | 226° |
| 2026-05-05 01:51 | 40.49756 | -82.17119 | 13514 ft | 327 kts | 226° |
| 2026-05-05 01:51 | 40.48082 | -82.19147 | 13083 ft | 325 kts | 226° |
| 2026-05-05 01:52 | 40.46428 | -82.21148 | 12664 ft | 321 kts | 226° |
| 2026-05-05 01:52 | 40.44798 | -82.23120 | 12244 ft | 318 kts | 226° |
| 2026-05-05 01:52 | 40.43192 | -82.25063 | 11834 ft | 315 kts | 226° |
| 2026-05-05 01:52 | 40.41581 | -82.27009 | 11410 ft | 312 kts | 226° |
| 2026-05-05 01:53 | 40.39998 | -82.28920 | 10996 ft | 309 kts | 226° |
| 2026-05-05 01:53 | 40.38391 | -82.30859 | 10708 ft | 306 kts | 226° |
| 2026-05-05 01:53 | 40.36854 | -82.32708 | 10443 ft | 295 kts | 226° |
| 2026-05-05 01:53 | 40.35375 | -82.34489 | 10309 ft | 282 kts | 227° |
| 2026-05-05 01:54 | 40.33968 | -82.36178 | 10176 ft | 270 kts | 227° |
| 2026-05-05 01:54 | 40.32613 | -82.37809 | 10048 ft | 258 kts | 227° |
| 2026-05-05 01:54 | 40.31304 | -82.39384 | 9774 ft | 254 kts | 227° |
| 2026-05-05 01:54 | 40.30008 | -82.40945 | 9449 ft | 251 kts | 227° |
| 2026-05-05 01:55 | 40.28731 | -82.42484 | 9142 ft | 248 kts | 227° |
| 2026-05-05 01:55 | 40.27467 | -82.44005 | 8847 ft | 245 kts | 227° |
| 2026-05-05 01:55 | 40.26210 | -82.45515 | 8557 ft | 242 kts | 227° |
| 2026-05-05 01:55 | 40.24984 | -82.46984 | 8271 ft | 239 kts | 227° |
| 2026-05-05 01:56 | 40.23758 | -82.48457 | 7990 ft | 236 kts | 226° |
| 2026-05-05 01:56 | 40.22557 | -82.49898 | 7716 ft | 233 kts | 226° |
| 2026-05-05 01:56 | 40.21369 | -82.51318 | 7440 ft | 230 kts | 226° |
| 2026-05-05 01:56 | 40.20197 | -82.52721 | 7168 ft | 227 kts | 226° |
| 2026-05-05 01:57 | 40.19049 | -82.54093 | 6919 ft | 224 kts | 226° |
| 2026-05-05 01:57 | 40.17907 | -82.55459 | 6664 ft | 221 kts | 226° |
| 2026-05-05 01:57 | 40.16756 | -82.56834 | 6395 ft | 218 kts | 226° |
| 2026-05-05 01:57 | 40.15604 | -82.58102 | 6132 ft | 218 kts | 220° |
| 2026-05-05 01:58 | 40.14294 | -82.59116 | 5855 ft | 221 kts | 212° |
| 2026-05-05 01:58 | 40.12870 | -82.59884 | 5531 ft | 223 kts | 207° |
| 2026-05-05 01:58 | 40.11417 | -82.60595 | 5247 ft | 222 kts | 207° |
| 2026-05-05 01:58 | 40.09975 | -82.61293 | 4979 ft | 220 kts | 207° |
| 2026-05-05 01:59 | 40.08530 | -82.61987 | 4756 ft | 214 kts | 206° |
| 2026-05-05 01:59 | 40.07162 | -82.62643 | 4562 ft | 208 kts | 206° |
| 2026-05-05 01:59 | 40.05829 | -82.63283 | 4384 ft | 200 kts | 206° |
| 2026-05-05 01:59 | 40.04561 | -82.63888 | 4322 ft | 187 kts | 207° |
| 2026-05-05 02:00 | 40.03377 | -82.64451 | 4278 ft | 174 kts | 207° |
| 2026-05-05 02:00 | 40.02249 | -82.64992 | 4253 ft | 171 kts | 208° |
| 2026-05-05 02:00 | 40.01137 | -82.65530 | 4221 ft | 171 kts | 207° |
| 2026-05-05 02:00 | 40.00023 | -82.66077 | 4173 ft | 170 kts | 211° |
| 2026-05-05 02:01 | 39.99180 | -82.67042 | 4026 ft | 161 kts | 247° |
| 2026-05-05 02:01 | 39.99032 | -82.68473 | 3903 ft | 154 kts | 264° |
| 2026-05-05 02:01 | 39.99117 | -82.69821 | 3653 ft | 145 kts | 267° |
| 2026-05-05 02:01 | 39.99219 | -82.71088 | 3365 ft | 137 kts | 266° |
| 2026-05-05 02:02 | 39.99303 | -82.72291 | 3077 ft | 130 kts | 265° |
| 2026-05-05 02:02 | 39.99372 | -82.73412 | 2876 ft | 119 kts | 265° |
| 2026-05-05 02:02 | 39.99430 | -82.74487 | 2730 ft | 121 kts | 265° |
| 2026-05-05 02:02 | 39.99487 | -82.75595 | 2588 ft | 123 kts | 265° |
| 2026-05-05 02:03 | 39.99547 | -82.76718 | 2447 ft | 122 kts | 265° |
| 2026-05-05 02:03 | 39.99606 | -82.77800 | 2292 ft | 121 kts | 266° |
| 2026-05-05 02:03 | 39.99665 | -82.78910 | 2133 ft | 123 kts | 265° |
| 2026-05-05 02:03 | 39.99730 | -82.80041 | 1971 ft | 125 kts | 267° |
| 2026-05-05 02:04 | 39.99791 | -82.81184 | 1805 ft | 127 kts | 266° |
| 2026-05-05 02:04 | 39.99854 | -82.82349 | 1636 ft | 130 kts | 267° |
| 2026-05-05 02:04 | 39.99920 | -82.83525 | 1461 ft | 131 kts | 268° |
| 2026-05-05 02:04 | 39.99990 | -82.84718 | 1287 ft | 133 kts | 268° |
| 2026-05-05 02:05 | 40.00053 | -82.85935 | 1110 ft | 135 kts | 268° |
| 2026-05-05 02:05 | 40.00121 | -82.87171 | 938 ft | 136 kts | 270° |
| 2026-05-05 02:05 | 40.00188 | -82.88397 | 810 ft | 133 kts | 272° |
| 2026-05-05 02:05 | 40.00245 | -82.89410 | 818 ft | 87 kts | 274° |
| 2026-05-05 02:06 | 40.00278 | -82.89995 | 817 ft | 50 kts | 273° |
| 2026-05-05 02:06 | 40.00295 | -82.90322 | 817 ft | 14 kts | 265° |
| 2026-05-05 02:06 | 40.00259 | -82.90393 | 817 ft | 9 kts | 205° |
| 2026-05-05 02:06 | 40.00210 | -82.90391 | 817 ft | 5 kts | 141° |
| 2026-05-05 02:07 | 40.00200 | -82.90336 | 817 ft | 7 kts | 94° |
| 2026-05-05 02:07 | 40.00196 | -82.90259 | 817 ft | 9 kts | 94° |
| 2026-05-05 02:07 | 40.00190 | -82.90159 | 817 ft | 12 kts | 92° |
| 2026-05-05 02:07 | 40.00187 | -82.90037 | 817 ft | 14 kts | 99° |
| 2026-05-05 02:08 | 40.00176 | -82.89896 | 817 ft | 16 kts | 94° |
| 2026-05-05 02:08 | 40.00167 | -82.89738 | 817 ft | 18 kts | 94° |
| 2026-05-05 02:08 | 40.00157 | -82.89564 | 817 ft | 20 kts | 94° |
| 2026-05-05 02:08 | 40.00147 | -82.89381 | 817 ft | 20 kts | 95° |
| 2026-05-05 02:09 | 40.00136 | -82.89195 | 817 ft | 20 kts | 94° |
| 2026-05-05 02:09 | 40.00125 | -82.89005 | 814 ft | 22 kts | 95° |
| 2026-05-05 02:09 | 40.00114 | -82.88808 | 814 ft | 22 kts | 94° |
| 2026-05-05 02:09 | 40.00106 | -82.88669 | 814 ft | 4 kts | 94° |
| 2026-05-05 02:10 | 40.00085 | -82.88638 | 814 ft | 5 kts | 175° |
| 2026-05-05 02:10 | 40.00040 | -82.88637 | 814 ft | 7 kts | 147° |
| 2026-05-05 02:10 | 40.00026 | -82.88569 | 814 ft | 8 kts | 93° |
| 2026-05-05 02:10 | 40.00012 | -82.88523 | 814 ft | 5 kts | 150° |
| 2026-05-05 02:11 | 39.99977 | -82.88508 | 814 ft | 3 kts | 186° |
| 2026-05-05 02:11 | 39.99963 | -82.88519 | 814 ft | 3 kts | 212° |
| 2026-05-05 02:11 | 39.99961 | -82.88520 | 814 ft | 0 kts | 211° |